San Antonio, Valles Caldera, New Mexico Weather observations

Data are for 10 minute period ending at time listed.
 Day   Time   Solar   Ave.   Ave.  Ave.  Vector  Max.   Baro.   Total    
  of    of     Rad.   Air    Rel.  Wind   Wind   Wind  Press.  Precip.   
Year   Day            Temp.  Hum.  Speed  Dir.   Gust                    
2015   (MST)  Kw/m2    F      %     mph   deg.    mph    mb.     in.     
-------------------------------------------------------------------------
 242   22:30   0.00   53.4    71    3.9    37     4.8   398.6    0.00 
 242   22:40   0.00   53.5    70    2.6    45     4.2   398.6    0.00 
 242   22:50   0.00   52.2    73    1.7   335     3.0   398.6    0.00 
 242   23:00   0.00   51.4    75    2.7     2     4.2   398.6    0.00 
 242   23:10   0.00   52.0    74    2.8   358     4.8   398.6    0.00 
 242   23:20   0.00   51.8    75    1.7   113     3.6   398.6    0.00 
 242   23:30   0.00   51.2    75    1.2   344     2.4   398.6    0.00 
 242   23:40   0.00   50.1    78    1.4     0     3.0   398.6    0.00 
 242   23:50   0.00   50.2    78    1.8    92     3.6   398.6    0.00 
 243    0:00   0.00   48.9    80    1.0   359     2.4   398.6    0.00 
 243    0:10   0.00   48.9    81    1.6    44     3.6   398.6    0.00 
 243    0:20   0.00   49.6    78    0.9    84     4.2   398.6    0.00 
 243    0:30   0.00   49.0    79    1.9   302     3.6   398.6    0.00 
 243    0:40   0.00   47.8    83    2.1   327     4.2   398.6    0.00 
 243    0:50   0.00   47.7    83    1.7    78     3.0   398.6    0.00 
 243    1:00   0.00   47.8    82    1.1   101     3.0   398.6    0.00 
 243    1:10   0.00   47.7    82    1.1   323     3.0   398.2    0.00 
 243    1:20   0.00   46.7    84    1.7    28     3.0   398.6    0.00 
 243    1:30   0.00   45.8    86    0.3   111     2.4   398.6    0.00 
 243    1:40   0.00   45.9    86    0.9     1     2.4   398.6    0.00 
 243    1:50   0.00   45.5    86    0.4   208     1.8   398.6    0.00 
 243    2:00   0.00   44.7    88    0.7    53     3.0   398.9    0.00 
 243    2:10   0.00   44.6    89    0.8   140     3.0   398.9    0.00 
 243    2:20   0.00   44.8    89    1.2   351     3.0   398.9    0.00 
 243    2:30   0.00   44.6    89    0.6   103     2.4   398.9    0.00 
 243    2:40   0.00   44.6    89    0.0    79     1.2   398.9    0.00 
 243    2:50   0.00   44.3    89    0.1    57     1.2   398.9    0.00 
 243    3:00   0.00   44.0    90    1.1     5     3.0   398.9    0.00 
 243    3:10   0.00   43.9    91    1.0   259     2.4   398.9    0.00 
 243    3:20   0.00   43.7    91    1.1   328     3.0   398.9    0.00 
 243    3:30   0.00   44.0    92    0.5    57     2.4   398.9    0.00 
 243    3:40   0.00   43.8    90    0.6   267     3.0   398.9    0.00 
 243    3:50   0.00   43.3    91    1.1   341     3.6   398.9    0.00 
 243    4:00   0.00   43.8    92    0.1    83     1.2   398.9    0.00 
 243    4:10   0.00   44.3    91    0.8   357     2.4   399.3    0.00 
 243    4:20   0.00   43.8    90    0.8   280     2.4   398.9    0.00 
 243    4:30   0.00   42.8    90    0.4   293     1.8   398.9    0.00 
 243    4:40   0.00   42.2    92    1.7    93     3.0   398.9    0.00 
 243    4:50   0.00   43.0    93    1.2    41     2.4   399.3    0.00 
 243    5:00   0.00   44.0    92    0.2   120     1.8   399.3    0.00 
 243    5:10   0.00   44.0    90    0.0   139     1.2   398.9    0.00 
 243    5:20   0.00   43.8    91    0.0     0     0.0   398.9    0.00 
 243    5:30   0.00   43.8    91    1.1   298     3.0   398.9    0.00 
 243    5:40   0.00   43.4    91    1.8   284     3.6   398.9    0.00 
 243    5:50   0.01   43.6    92    0.1    81     1.2   399.3    0.00 
 243    6:00   0.01   44.3    92    0.7   157     2.4   399.3    0.00 
 243    6:10   0.03   44.3    91    0.9   293     3.0   399.3    0.00 
 243    6:20   0.04   44.4    91    0.4   156     2.4   399.3    0.00 
 243    6:30   0.05   44.6    92    0.3   145     1.8   399.3    0.00 
 243    6:40   0.06   45.2    92    0.6   108     2.4   399.3    0.00 
 243    6:50   0.07   46.3    91    1.0   286     3.0   399.3    0.00 
 243    7:00   0.07   47.1    90    0.9   186     2.4   399.3    0.00 
 243    7:10   0.07   47.4    90    1.0   232     1.8   399.3    0.00 
 243    7:20   0.09   47.9    89    0.1    13     1.8   399.3    0.00 
 243    7:30   0.10   48.8    88    0.8   256     2.4   399.3    0.00 
 243    7:40   0.10   48.7    87    1.1   263     2.4   398.9    0.00 
 243    7:50   0.14   49.8    86    0.4   267     2.4   398.9    0.00 
 243    8:00   0.34   52.6    81    0.9   262     3.0   398.9    0.00 
 243    8:10   0.40   57.6    70    1.1   272     2.4   398.9    0.00 
 243    8:20   0.39   60.0    65    1.1   197     2.4   399.3    0.00 
 243    8:30   0.34   61.1    62    1.2   170     3.0   399.3    0.00 
 243    8:40   0.54   64.1    56    1.2   280     3.6   399.6    0.00 
 243    8:50   0.57   66.2    53    2.7   227     6.0   400.3    0.00 
 243    9:00   0.59   67.3    48    4.1   230     7.8   400.3    0.00 
 243    9:10   0.62   69.0    44    3.6   257    11.9   400.6    0.00 
 243    9:20   0.65   71.5    38    6.4   293    11.9   400.9    0.00 
 243    9:30   0.68   71.3    37    5.6   329    10.8   401.3    0.00 
 243    9:40   0.70   72.2    36    5.8   291    10.8   401.6    0.00 
 243    9:50   0.73   72.7    36    6.4   292    10.8   402.0    0.00 
 243   10:00   0.76   72.7    36    7.6   291    13.7   402.3    0.00 
 243   10:10   0.71   72.5    36    7.5   302    16.1   402.3    0.00 
 243   10:20   0.84   71.3    39    5.3   279    10.8   402.6    0.00 
 243   10:30   0.79   71.7    38    7.9   281    13.7   402.6    0.00 
 243   10:40   0.81   71.9    37    5.3   269    11.3   402.6    0.00 
 243   10:50   0.72   71.5    38    7.4   278    15.5   402.6    0.00 
 243   11:00   0.86   72.2    37    4.2   272    11.3   403.0    0.00 
 243   11:10   0.43   71.1    38    6.6   248    12.5   402.6    0.00 
 243   11:20   0.18   68.9    40    5.1   314     9.0   400.6    0.00 
 243   11:30   0.25   69.1    40    4.6   302     7.8   402.0    0.00 
 243   11:40   0.40   69.7    39    3.6   277     6.6   402.3    0.00 
 243   11:50   0.69   71.6    38    5.6   330    14.3   402.3    0.00 
 243   12:00   0.22   71.7    37    5.1   315     9.6   402.0    0.00 
 243   12:10   0.41   70.4    38    5.6   312     9.6   402.0    0.00 
 243   12:20   0.86   71.8    36    7.0   304    11.9   402.3    0.00 
 243   12:30   0.97   74.5    32    7.2   289    15.5   402.6    0.00 
 243   12:40   0.58   74.0    30    9.6   286    16.1   402.3    0.00 
 243   12:50   0.68   73.8    30    9.7   282    17.3   402.3    0.00 
 243   13:00   0.24   72.2    32    9.9   270    16.7   402.0    0.00 
 243   13:10   0.66   71.8    33    8.3   266    19.1   402.3    0.00 
 243   13:20   0.59   72.7    32    8.2   272    14.3   402.3    0.00 
 243   13:30   0.89   75.2    29   10.7   266    17.3   403.0    0.00 
 243   13:40   0.89   75.3    29    9.3   256    13.7   403.0    0.00 
 243   13:50   0.89   75.9    29   11.5   263    17.9   403.3    0.00 
 243   14:00   0.88   75.8    29    9.2   256    17.9   403.7    0.00 
 243   14:10   0.86   76.5    28   11.8   263    20.3   404.0    0.00 
 243   14:20   0.82   77.3    28   10.2   284    16.1   404.0    0.00 
 243   14:30   0.79   77.5    26    8.3   276    14.9   404.3    0.00 
 243   14:40   0.77   77.1    26   10.6   264    16.7   404.3    0.00 
 243   14:50   0.75   76.2    28    9.9   258    22.1   404.3    0.00 
 243   15:00   0.67   76.5    28    9.8   267    17.3   404.7    0.00 
 243   15:10   0.69   76.8    26    9.2   269    16.1   404.7    0.00 
 243   15:20   0.67   76.5    28   10.0   269    17.3   404.7    0.00 
 243   15:30   0.62   77.1    27    8.8   282    15.5   404.7    0.00 
 243   15:40   0.58   77.1    26    9.9   278    14.9   404.7    0.00 
 243   15:50   0.54   77.2    26    7.7   283    12.5   404.3    0.00 
 243   16:00   0.46   77.0    28    7.4   281    12.5   404.3    0.00 
 243   16:10   0.47   76.4    30    8.7   261    13.1   404.3    0.00 
 243   16:20   0.45   75.3    31   10.2   265    14.9   404.3    0.00 
 243   16:30   0.25   74.4    31    6.6   271    13.1   404.0    0.00 
 243   16:40   0.18   72.2    32    8.6   295    16.1   403.7    0.00 
 243   16:50   0.23   72.9    32    8.0   289    14.9   403.3    0.00 
 243   17:00   0.11   72.0    32    6.1   311    11.3   402.6    0.00 
 243   17:10   0.19   72.1    33    5.1   294     9.6   402.6    0.00 
 243   17:20   0.19   72.3    32    6.4   314    16.7   402.3    0.00 
 243   17:30   0.18   72.6    31    7.9   285    13.1   402.3    0.00 
 243   17:40   0.11   71.5    32    7.4   298    13.1   402.0    0.00 
 243   17:50   0.06   69.8    34    5.6   303    10.8   402.0    0.00 
 243   18:00   0.04   68.3    36    4.4   310     9.6   401.6    0.00 
 243   18:10   0.03   67.3    37    2.8   330     6.0   401.3    0.00 
 243   18:20   0.02   66.3    38    2.6   337     6.6   400.9    0.00 
 243   18:30   0.01   65.4    39    2.0   328     3.6   400.6    0.00 
 243   18:40   0.00   64.4    41    1.4   345     3.6   400.3    0.00 
 243   18:50   0.00   61.5    50    1.5   128     2.4   400.3    0.00 
 243   19:00   0.00   59.1    54    2.1   116     3.6   399.9    0.00 
 243   19:10   0.00   59.4    52    2.3    49     3.6   399.6    0.00 
 243   19:20   0.00   59.5    50    2.6    50     3.6   399.6    0.00 
 243   19:30   0.00   59.1    50    2.2    43     3.6   399.3    0.00 
 243   19:40   0.00   58.7    51    2.1    21     3.0   399.3    0.00 
 243   19:50   0.00   57.8    53    1.7   331     3.6   399.3    0.00 
 243   20:00   0.00   57.4    55    0.9    34     1.8   398.9    0.00 
 243   20:10   0.00   57.2    55    1.1    35     2.4   398.9    0.00 
 243   20:20   0.00   56.7    56    2.0    45     3.0   398.9    0.00 
 243   20:30   0.00   56.3    58    3.0    27     4.2   398.9    0.00 
 243   20:40   0.00   55.6    59    2.9    19     4.2   398.9    0.00 
 243   20:50   0.00   55.5    59    3.5    18     5.4   398.6    0.00 
 243   21:00   0.00   55.9    58    2.8   358     4.2   398.6    0.00 
 243   21:10   0.00   56.3    58    1.3   354     3.0   398.6    0.00 
 243   21:20   0.00   55.3    61    0.5   100     2.4   398.6    0.00 
 243   21:30   0.00   54.3    64    1.5     0     4.2   398.6    0.00 
 243   21:40   0.00   53.0    67    1.2   331     4.2   398.6    0.00 
 243   21:50   0.00   53.1    64    2.5    18     4.8   398.6    0.00 
 243   22:00   0.00   53.7    64    1.2    58     3.0   398.6    0.00 
 243   22:10   0.00   53.2    65    2.9    21     4.2   398.6    0.00 
 243   22:20   0.00   53.0    66    3.0    61     4.8   398.6    0.00 

Return to San Antonio, Valles Caldera graphs page.


Western Regional Climate Center,wrcc@dri.edu